Atlantic Beach, NY

3:14 PM EDT on August 30, 2014 (GMT -0400)
Long Beach, NY (East End) | Change Station
CLOSE
Current Station
Personal Weather Station
Location: Long Beach, NY
Elevation: 10 ft
Nearby Weather Stations

Elev 10 ft 40.59 °N, 73.64 °W | Updated 2 seconds ago

Mostly Cloudy
Mostly Cloudy
78.2 °F
Feels Like 80 °F
N
5.0
Wind Variable Wind from South
Gusts 10.0 mph

Today
High -- | Low -- °F
--% Chance of Precip.
Yesterday
High -- | Low -- °F
Precip. -- in
6:20 AM 7:30 PM
Waxing Crescent, 24% visible
Pressure 30.23 in
Visibility 10.0 miles
Clouds Scattered Clouds 2800 ft
Mostly Cloudy 4800 ft
Heat Index 80 °F
Dew Point 65 °F
Humidity 65%
Rainfall 0.00 in
Snow Depth Not available.
UV 4 out of 12
Pollen 9.80 out of 12
Air Quality Not available.
Flu Activity Not available.
METAR KJFK 301851Z 17012KT 10SM SCT028 BKN048 25/17 A3023 RMK AO2 SLP236 T02500167

More Conditions Fewer Conditions

Pressure 30.23 in
Visibility 10.0 miles
Clouds Scattered Clouds 2800 ft
Mostly Cloudy 4800 ft
Heat Index 80 °F
Dew Point 65 °F
Humidity 65%
Rainfall 0.00 in
Snow Depth Not available.
UV 4 out of 12
Pollen 9.80 out of 12
Air Quality Not available.
Flu Activity Not available.
METAR KJFK 301851Z 17012KT 10SM SCT028 BKN048 25/17 A3023 RMK AO2 SLP236 T02500167

More Conditions Fewer Conditions

10-Day Weather Forecast

Almanac

Astronomy

Aug. 30, 2014 Rise Set
Actual Time 6:20 AM EDT 7:30 PM EDT
Civil Twilight 5:51 AM EDT 7:58 PM EDT
Nautical Twilight 5:18 AM EDT 8:31 PM EDT
Astronomical Twilight 4:42 AM EDT 9:07 PM EDT
Moon 11:06 AM EDT 10:01 PM EDT
Length of Visible Light 14h 06m
Length of Day
13h 10m
Tomorrow will be 2m 33s shorter.
Waxing Crescent, 24% of the Moon is Illuminated
Today
Waxing Crescent
Sep 2
First Quarter
Sep 8
Full
Sep 15
Last Quarter
Sep 24
New

Today's Extremes

State Highs State Lows

Community

WunderPhotos

Upload Photos

1,748,596 photos uploaded!

WunderBlogs® & News

Nearby

Snow Depth

Station Depth Elevation
No new snow has been reported.

Earthquake Activity

City Distance Mag. Time & Date
No recent earthquake activity has been reported nearby.
Minimum magnitude displayed is 2.5.

Coastal Water Temperatures

Place Temperature
Sandy Hook, NJ 75.0 °F
The Battery, NY 73.9 °F
Bergen Point West Reach, NJ 73.9 °F
Kings Point, NY 73.9 °F

Nearby Weather Stations